Gulf Dawn — WCY2448 — position and weather

sailwx.info

Track history (hours):
 
Tides and Currents Weather Stations Pressure Air Temp Water Temp Dewpoint Dewpoint Depression Visibility Wind Speed Wind Dir Waves Ship Positions

Gulf Dawn

Owner: CHARPENTIER, KENNETH G, GRETNA, LA. More information available from US FCC via Universal Licensing System and Coast Guard Vessel Documentation Center.

Last reported at 2017-Dec-12 17:11 UTC. Time now 2017-Dec-15 12:13 UTC.
Position N 41°13' W 072°49'.

Length 26 m.

MMSI: 367005130.

Date/timePositionNaut miles runAvg speedWind from/ knotsBaromVisibWave heightAir tempDewpointWater temp
2017-Dec-12 17:11N 41°13' W 072°49'2 8.5
2017-Dec-12 16:59N 41°13' W 072°46'4 8.3
2017-Dec-12 16:30N 41°14' W 072°41'4 8.0
2017-Dec-12 16:00N 41°15' W 072°36'1 1.9
2017-Dec-12 15:30N 41°15' W 072°35'5 9.3
2017-Dec-12 15:00N 41°14' W 072°41'  
2017-Dec-09 23:46N 41°12' W 072°49'2 4.9
2017-Dec-09 23:25N 41°13' W 072°47'2 4.9
2017-Dec-09 23:00N 41°13' W 072°44'2 4.9
2017-Dec-09 22:30N 41°14' W 072°41'3 5.1
2017-Dec-09 22:00N 41°14' W 072°37'3 5.1
2017-Dec-09 21:30N 41°15' W 072°34'0 0.9
2017-Dec-09 21:00N 41°16' W 072°34'0 0.0
2017-Dec-09 20:30N 41°16' W 072°34'0 0.3
2017-Dec-09 20:00N 41°16' W 072°34'0 0.3
2017-Dec-09 19:30N 41°16' W 072°34'0 0.1
2017-Dec-09 19:00N 41°16' W 072°34'0 0.0
2017-Dec-09 18:30N 41°16' W 072°34'0 0.1
2017-Dec-09 18:00N 41°16' W 072°34'0 0.0
2017-Dec-09 17:30N 41°16' W 072°34'0 0.0
2017-Dec-09 17:00N 41°16' W 072°34'0 0.0
2017-Dec-09 16:30N 41°16' W 072°34'0 0.0
2017-Dec-09 16:00N 41°16' W 072°34'0 0.1
2017-Dec-09 15:30N 41°16' W 072°34'0 0.0
2017-Dec-09 15:00N 41°16' W 072°34'0 0.0
2017-Dec-09 14:30N 41°16' W 072°34'0 0.6
2017-Dec-09 14:00N 41°16' W 072°34'0 0.0
2017-Dec-09 13:30N 41°16' W 072°34'0 0.0
2017-Dec-09 13:00N 41°16' W 072°34'1 1.0
2017-Dec-09 12:30N 41°15' W 072°34'1 2.0
2017-Dec-09 12:00N 41°15' W 072°35'3 6.3
2017-Dec-09 11:30N 41°14' W 072°39'3 6.7
2017-Dec-09 11:00N 41°13' W 072°44'4 0.2
2017-Dec-08 12:04N 41°12' W 072°49'0 2.6
2017-Dec-08 11:58N 41°12' W 072°48'1 2.5
2017-Dec-08 11:29N 41°13' W 072°47'1 2.1
2017-Dec-08 11:00N 41°13' W 072°46'1 1.9
2017-Dec-08 10:30N 41°13' W 072°44'1 1.9
2017-Dec-08 10:00N 41°13' W 072°43'1 1.7
2017-Dec-08 09:30N 41°13' W 072°42'1 1.2
2017-Dec-08 09:00N 41°13' W 072°41'1 1.4
2017-Dec-08 08:30N 41°14' W 072°40'1 1.7
2017-Dec-08 08:00N 41°14' W 072°39'1 1.8
2017-Dec-08 07:30N 41°14' W 072°38'1 2.1
2017-Dec-08 07:00N 41°14' W 072°37'0 0.7
2017-Dec-08 06:30N 41°14' W 072°37'0 0.4
2017-Dec-08 06:00N 41°14' W 072°37'2 3.9
2017-Dec-08 05:30N 41°15' W 072°35'1 1.8
2017-Dec-08 05:00N 41°15' W 072°34'0 0.3
2017-Dec-08 04:30N 41°16' W 072°34'0 0.0
2017-Dec-08 04:00N 41°16' W 072°34'0 0.0
2017-Dec-08 03:30N 41°16' W 072°34'0 0.0
2017-Dec-08 03:00N 41°16' W 072°34'0 0.0
2017-Dec-08 02:30N 41°16' W 072°34'0 0.0
2017-Dec-08 02:00N 41°16' W 072°34'0 0.0
2017-Dec-08 01:30N 41°16' W 072°34'0 0.0
2017-Dec-08 01:00N 41°16' W 072°34'0 0.1
2017-Dec-08 00:30N 41°16' W 072°34'0 0.1
2017-Dec-08 00:00N 41°16' W 072°34'0 0.0
2017-Dec-07 23:30N 41°16' W 072°34'0 0.0
2017-Dec-07 23:00N 41°16' W 072°34'0 0.0
2017-Dec-07 22:30N 41°16' W 072°34'0 0.0
2017-Dec-07 22:00N 41°16' W 072°34'0 0.0
2017-Dec-07 21:30N 41°16' W 072°34'0 0.1
2017-Dec-07 21:00N 41°16' W 072°34'0 0.1
2017-Dec-07 20:30N 41°16' W 072°34'0 0.1
2017-Dec-07 20:00N 41°16' W 072°34'0 0.1
2017-Dec-07 19:30N 41°16' W 072°34'0 0.0
2017-Dec-07 19:00N 41°16' W 072°34'0 0.0
2017-Dec-07 18:30N 41°16' W 072°34'0 0.0
2017-Dec-07 18:00N 41°16' W 072°34'0 0.0
2017-Dec-07 17:30N 41°16' W 072°34'0 0.0
2017-Dec-07 17:00N 41°16' W 072°34'0 0.0
2017-Dec-07 16:30N 41°16' W 072°34'0 0.0
2017-Dec-07 16:00N 41°16' W 072°34'0 0.0
2017-Dec-07 15:30N 41°16' W 072°34'0 0.0
2017-Dec-07 15:00N 41°16' W 072°34'0 0.0
2017-Dec-07 14:30N 41°16' W 072°34'0 0.0
2017-Dec-07 14:00N 41°16' W 072°34'0 0.0
2017-Dec-07 13:30N 41°16' W 072°34'0 0.0
2017-Dec-07 13:00N 41°16' W 072°34'0 0.0
2017-Dec-07 12:30N 41°16' W 072°34'0 0.0
2017-Dec-07 12:00N 41°16' W 072°34'0 0.1
2017-Dec-07 11:30N 41°16' W 072°34'1 1.5
2017-Dec-07 11:00N 41°15' W 072°34'0 1.0
2017-Dec-07 10:30N 41°15' W 072°35'2 3.5
2017-Dec-07 10:00N 41°14' W 072°37'2 4.4
2017-Dec-07 09:30N 41°14' W 072°40'2 4.4
2017-Dec-07 09:00N 41°13' W 072°43'  
2017-Dec-04 10:30N 41°15' W 072°34'0 0.3
2017-Dec-04 10:00N 41°16' W 072°34'0 0.0
2017-Dec-04 09:30N 41°16' W 072°34'0 0.0
2017-Dec-04 09:00N 41°16' W 072°34'0 0.0
2017-Dec-04 08:30N 41°16' W 072°34'0 0.0
2017-Dec-04 08:00N 41°16' W 072°34'0 0.0
2017-Dec-04 07:30N 41°16' W 072°34'0 0.0
2017-Dec-04 07:00N 41°16' W 072°34'0 0.0
2017-Dec-04 06:30N 41°16' W 072°34'0 0.0
2017-Dec-04 06:00N 41°16' W 072°34'0 0.0
2017-Dec-04 05:30N 41°16' W 072°34'0 0.0
2017-Dec-04 05:00N 41°16' W 072°34'0 0.0
2017-Dec-04 04:30N 41°16' W 072°34'1 1.1
2017-Dec-04 04:00N 41°15' W 072°34'0 0.6
2017-Dec-04 03:30N 41°15' W 072°34'0 0.9
2017-Dec-04 03:00N 41°15' W 072°35'1 3.0
2017-Dec-04 02:30N 41°15' W 072°37'2 4.4
2017-Dec-04 02:00N 41°14' W 072°40'2 3.9
2017-Dec-04 01:30N 41°13' W 072°42'2 4.1
2017-Dec-04 01:00N 41°13' W 072°45'4 0.3
2017-Dec-03 14:21N 41°12' W 072°49'3 7.4
2017-Dec-03 14:00N 41°13' W 072°46'4 7.8
2017-Dec-03 13:30N 41°14' W 072°41'4 7.8
2017-Dec-03 13:00N 41°15' W 072°36'2 3.7
2017-Dec-03 12:30N 41°16' W 072°34'0 0.0
2017-Dec-03 12:00N 41°16' W 072°34'0 0.0
2017-Dec-03 11:30N 41°16' W 072°34'0 0.0
2017-Dec-03 11:00N 41°16' W 072°34'0 0.0
2017-Dec-03 10:30N 41°16' W 072°34'0 0.0
2017-Dec-03 10:00N 41°16' W 072°34'0 0.0
2017-Dec-03 09:30N 41°16' W 072°34'0 0.0
2017-Dec-03 09:00N 41°16' W 072°34'0 0.0
2017-Dec-03 08:30N 41°16' W 072°34'0 0.0
2017-Dec-03 08:00N 41°16' W 072°34'0 0.0
2017-Dec-03 07:30N 41°16' W 072°34'0 0.0
2017-Dec-03 07:00N 41°16' W 072°34'0 0.0
2017-Dec-03 06:30N 41°16' W 072°34'0 0.0
2017-Dec-03 06:00N 41°16' W 072°34'0 0.0
2017-Dec-03 05:30N 41°16' W 072°34'1 1.5
2017-Dec-03 05:00N 41°15' W 072°34'3 6.8
2017-Dec-03 04:30N 41°14' W 072°39'4 7.7
2017-Dec-03 04:00N 41°13' W 072°44'  
Track history (hours):
 
Tides and Currents Weather Stations Pressure Air Temp Water Temp Dewpoint Dewpoint Depression Visibility Wind Speed Wind Dir Waves Ship Positions

Gulf Dawn

Owner: CHARPENTIER, KENNETH G, GRETNA, LA. More information available from US FCC via Universal Licensing System and Coast Guard Vessel Documentation Center.

Last reported at 2017-Dec-12 17:11 UTC. Time now 2017-Dec-15 12:13 UTC.
Position N 41°13' W 072°49'.

Length 26 m.

MMSI: 367005130.

Date/timePositionNaut miles runAvg speedWind from/ knotsBaromVisibWave heightAir tempDewpointWater temp
2017-Dec-12 17:11N 41°13' W 072°49'2 8.5
2017-Dec-12 16:59N 41°13' W 072°46'4 8.3
2017-Dec-12 16:30N 41°14' W 072°41'4 8.0
2017-Dec-12 16:00N 41°15' W 072°36'1 1.9
2017-Dec-12 15:30N 41°15' W 072°35'5 9.3
2017-Dec-12 15:00N 41°14' W 072°41'  
2017-Dec-09 23:46N 41°12' W 072°49'2 4.9
2017-Dec-09 23:25N 41°13' W 072°47'2 4.9
2017-Dec-09 23:00N 41°13' W 072°44'2 4.9
2017-Dec-09 22:30N 41°14' W 072°41'3 5.1
2017-Dec-09 22:00N 41°14' W 072°37'3 5.1
2017-Dec-09 21:30N 41°15' W 072°34'0 0.9
2017-Dec-09 21:00N 41°16' W 072°34'0 0.0
2017-Dec-09 20:30N 41°16' W 072°34'0 0.3
2017-Dec-09 20:00N 41°16' W 072°34'0 0.3
2017-Dec-09 19:30N 41°16' W 072°34'0 0.1
2017-Dec-09 19:00N 41°16' W 072°34'0 0.0
2017-Dec-09 18:30N 41°16' W 072°34'0 0.1
2017-Dec-09 18:00N 41°16' W 072°34'0 0.0
2017-Dec-09 17:30N 41°16' W 072°34'0 0.0
2017-Dec-09 17:00N 41°16' W 072°34'0 0.0
2017-Dec-09 16:30N 41°16' W 072°34'0 0.0
2017-Dec-09 16:00N 41°16' W 072°34'0 0.1
2017-Dec-09 15:30N 41°16' W 072°34'0 0.0
2017-Dec-09 15:00N 41°16' W 072°34'0 0.0
2017-Dec-09 14:30N 41°16' W 072°34'0 0.6
2017-Dec-09 14:00N 41°16' W 072°34'0 0.0
2017-Dec-09 13:30N 41°16' W 072°34'0 0.0
2017-Dec-09 13:00N 41°16' W 072°34'1 1.0
2017-Dec-09 12:30N 41°15' W 072°34'1 2.0
2017-Dec-09 12:00N 41°15' W 072°35'3 6.3
2017-Dec-09 11:30N 41°14' W 072°39'3 6.7
2017-Dec-09 11:00N 41°13' W 072°44'4 0.2
2017-Dec-08 12:04N 41°12' W 072°49'0 2.6
2017-Dec-08 11:58N 41°12' W 072°48'1 2.5
2017-Dec-08 11:29N 41°13' W 072°47'1 2.1
2017-Dec-08 11:00N 41°13' W 072°46'1 1.9
2017-Dec-08 10:30N 41°13' W 072°44'1 1.9
2017-Dec-08 10:00N 41°13' W 072°43'1 1.7
2017-Dec-08 09:30N 41°13' W 072°42'1 1.2
2017-Dec-08 09:00N 41°13' W 072°41'1 1.4
2017-Dec-08 08:30N 41°14' W 072°40'1 1.7
2017-Dec-08 08:00N 41°14' W 072°39'1 1.8
2017-Dec-08 07:30N 41°14' W 072°38'1 2.1
2017-Dec-08 07:00N 41°14' W 072°37'0 0.7
2017-Dec-08 06:30N 41°14' W 072°37'0 0.4
2017-Dec-08 06:00N 41°14' W 072°37'2 3.9
2017-Dec-08 05:30N 41°15' W 072°35'1 1.8
2017-Dec-08 05:00N 41°15' W 072°34'0 0.3
2017-Dec-08 04:30N 41°16' W 072°34'0 0.0
2017-Dec-08 04:00N 41°16' W 072°34'0 0.0
2017-Dec-08 03:30N 41°16' W 072°34'0 0.0
2017-Dec-08 03:00N 41°16' W 072°34'0 0.0
2017-Dec-08 02:30N 41°16' W 072°34'0 0.0
2017-Dec-08 02:00N 41°16' W 072°34'0 0.0
2017-Dec-08 01:30N 41°16' W 072°34'0 0.0
2017-Dec-08 01:00N 41°16' W 072°34'0 0.1
2017-Dec-08 00:30N 41°16' W 072°34'0 0.1
2017-Dec-08 00:00N 41°16' W 072°34'0 0.0
2017-Dec-07 23:30N 41°16' W 072°34'0 0.0
2017-Dec-07 23:00N 41°16' W 072°34'0 0.0
2017-Dec-07 22:30N 41°16' W 072°34'0 0.0
2017-Dec-07 22:00N 41°16' W 072°34'0 0.0
2017-Dec-07 21:30N 41°16' W 072°34'0 0.1
2017-Dec-07 21:00N 41°16' W 072°34'0 0.1
2017-Dec-07 20:30N 41°16' W 072°34'0 0.1
2017-Dec-07 20:00N 41°16' W 072°34'0 0.1
2017-Dec-07 19:30N 41°16' W 072°34'0 0.0
2017-Dec-07 19:00N 41°16' W 072°34'0 0.0
2017-Dec-07 18:30N 41°16' W 072°34'0 0.0
2017-Dec-07 18:00N 41°16' W 072°34'0 0.0
2017-Dec-07 17:30N 41°16' W 072°34'0 0.0
2017-Dec-07 17:00N 41°16' W 072°34'0 0.0
2017-Dec-07 16:30N 41°16' W 072°34'0 0.0
2017-Dec-07 16:00N 41°16' W 072°34'0 0.0
2017-Dec-07 15:30N 41°16' W 072°34'0 0.0
2017-Dec-07 15:00N 41°16' W 072°34'0 0.0
2017-Dec-07 14:30N 41°16' W 072°34'0 0.0
2017-Dec-07 14:00N 41°16' W 072°34'0 0.0
2017-Dec-07 13:30N 41°16' W 072°34'0 0.0
2017-Dec-07 13:00N 41°16' W 072°34'0 0.0
2017-Dec-07 12:30N 41°16' W 072°34'0 0.0
2017-Dec-07 12:00N 41°16' W 072°34'0 0.1
2017-Dec-07 11:30N 41°16' W 072°34'1 1.5
2017-Dec-07 11:00N 41°15' W 072°34'0 1.0
2017-Dec-07 10:30N 41°15' W 072°35'2 3.5
2017-Dec-07 10:00N 41°14' W 072°37'2 4.4
2017-Dec-07 09:30N 41°14' W 072°40'2 4.4
2017-Dec-07 09:00N 41°13' W 072°43'  
2017-Dec-04 10:30N 41°15' W 072°34'0 0.3
2017-Dec-04 10:00N 41°16' W 072°34'0 0.0
2017-Dec-04 09:30N 41°16' W 072°34'0 0.0
2017-Dec-04 09:00N 41°16' W 072°34'0 0.0
2017-Dec-04 08:30N 41°16' W 072°34'0 0.0
2017-Dec-04 08:00N 41°16' W 072°34'0 0.0
2017-Dec-04 07:30N 41°16' W 072°34'0 0.0
2017-Dec-04 07:00N 41°16' W 072°34'0 0.0
2017-Dec-04 06:30N 41°16' W 072°34'0 0.0
2017-Dec-04 06:00N 41°16' W 072°34'0 0.0
2017-Dec-04 05:30N 41°16' W 072°34'0 0.0
2017-Dec-04 05:00N 41°16' W 072°34'0 0.0
2017-Dec-04 04:30N 41°16' W 072°34'1 1.1
2017-Dec-04 04:00N 41°15' W 072°34'0 0.6
2017-Dec-04 03:30N 41°15' W 072°34'0 0.9
2017-Dec-04 03:00N 41°15' W 072°35'1 3.0
2017-Dec-04 02:30N 41°15' W 072°37'2 4.4
2017-Dec-04 02:00N 41°14' W 072°40'2 3.9
2017-Dec-04 01:30N 41°13' W 072°42'2 4.1
2017-Dec-04 01:00N 41°13' W 072°45'4 0.3
2017-Dec-03 14:21N 41°12' W 072°49'3 7.4
2017-Dec-03 14:00N 41°13' W 072°46'4 7.8
2017-Dec-03 13:30N 41°14' W 072°41'4 7.8
2017-Dec-03 13:00N 41°15' W 072°36'2 3.7
2017-Dec-03 12:30N 41°16' W 072°34'0 0.0
2017-Dec-03 12:00N 41°16' W 072°34'0 0.0
2017-Dec-03 11:30N 41°16' W 072°34'0 0.0
2017-Dec-03 11:00N 41°16' W 072°34'0 0.0
2017-Dec-03 10:30N 41°16' W 072°34'0 0.0
2017-Dec-03 10:00N 41°16' W 072°34'0 0.0
2017-Dec-03 09:30N 41°16' W 072°34'0 0.0
2017-Dec-03 09:00N 41°16' W 072°34'0 0.0
2017-Dec-03 08:30N 41°16' W 072°34'0 0.0
2017-Dec-03 08:00N 41°16' W 072°34'0 0.0
2017-Dec-03 07:30N 41°16' W 072°34'0 0.0
2017-Dec-03 07:00N 41°16' W 072°34'0 0.0
2017-Dec-03 06:30N 41°16' W 072°34'0 0.0
2017-Dec-03 06:00N 41°16' W 072°34'0 0.0
2017-Dec-03 05:30N 41°16' W 072°34'1 1.5
2017-Dec-03 05:00N 41°15' W 072°34'3 6.8
2017-Dec-03 04:30N 41°14' W 072°39'4 7.7
2017-Dec-03 04:00N 41°13' W 072°44'  

Dump ship's entire track history